Planet Ace — 3EYF9 — position and weather

sailwx.info

Track history (hours):
 
Tides and Currents Weather Stations Pressure Air Temp Water Temp Dewpoint Dewpoint Depression Visibility Wind Speed Wind Dir Waves Ship Positions

Planet Ace

Last reported at 2016-May-30 08:17 UTC. Time now 2016-May-30 18:24 UTC.
Position N 43°13' E 004°12'.

Length 188 m; beam 28.2 m.

Type: Cargo ship. MMSI: 352168000.

Date/timePositionNaut miles runAvg speedWind from/ knotsBaromVisibWave heightAir tempDewpointWater temp
2016-May-30 08:17N 43°13' E 004°12'1314.6
2016-May-30 07:24N 43°09' E 004°29'13613.8
2016-May-29 21:33N 42°58' E 007°34'1413.6
2016-May-29 20:33N 42°60' E 007°52'2713.4
2016-May-29 18:33N 43°04' E 008°29'1413.6
2016-May-29 17:31N 43°06' E 008°48'1413.5
2016-May-29 16:29N 43°08' E 009°07'1213.1
2016-May-29 15:34N 43°06' E 009°23'1313.3
2016-May-29 14:34N 42°58' E 009°38'2014.7
2016-May-29 13:12N 42°40' E 009°48'3913.3
2016-May-29 10:16N 42°10' E 010°23'12015.0
2016-May-29 02:17N 41°02' E 012°34'1115.0
2016-May-29 01:32N 40°55' E 012°45'1515.3
2016-May-29 00:33N 40°46' E 013°02'1515.5
2016-May-28 23:33N 40°40' E 013°21'1515.4
2016-May-28 22:33N 40°35' E 013°39'1515.2
2016-May-28 21:34N 40°30' E 013°58'1514.6
2016-May-28 20:33N 40°27' E 014°17'1515.2
2016-May-28 19:33N 40°33' E 014°35'10 2.0
2016-May-28 14:29N 40°40' E 014°45'0 0.0
2016-May-28 13:29N 40°40' E 014°45'0 0.0
2016-May-28 12:32N 40°40' E 014°45'0 0.0
2016-May-28 10:29N 40°40' E 014°45'5 4.5
2016-May-28 09:20N 40°35' E 014°43'1215.8
2016-May-28 08:33N 40°23' E 014°43'1717.4
2016-May-28 07:33N 40°06' E 014°48'5217.3
2016-May-28 04:33N 39°18' E 015°13'1817.5
2016-May-28 03:33N 39°02' E 015°21'1717.4
2016-May-28 02:33N 38°45' E 015°29'1717.3
2016-May-28 01:33N 38°29' E 015°37'1514.6
2016-May-28 00:33N 38°15' E 015°39'1615.6
2016-May-27 23:33N 37°59' E 015°36'1616.2
2016-May-27 22:33N 37°48' E 015°51'1717.1
2016-May-27 21:33N 37°40' E 016°10'1716.5
2016-May-27 20:33N 37°36' E 016°30'1616.5
2016-May-27 19:34N 37°32' E 016°50'1816.6
2016-May-27 18:30N 37°27' E 017°11'4116.9
2016-May-27 16:03N 37°14' E 018°01'917.1
2016-May-27 15:30N 37°11' E 018°12'25415.7
2016-May-26 23:18N 36°22' E 023°23'1317.1
2016-May-26 22:33N 36°33' E 023°30'3917.0
2016-May-26 20:14N 37°05' E 023°59'1217.2
2016-May-26 19:33N 37°15' E 024°07'1717.0
2016-May-26 18:33N 37°29' E 024°18'1616.2
2016-May-26 17:34N 37°43' E 024°29'26812.8
2016-May-25 20:33N 40°25' E 029°04'0 0.0
2016-May-25 06:19N 40°25' E 029°05'2 2.5
2016-May-25 05:29N 40°25' E 029°02'17 7.1
2016-May-25 03:07N 40°39' E 028°50'813.7
2016-May-25 02:33N 40°42' E 028°60'1312.9
2016-May-25 01:33N 40°44' E 029°17'1010.2
2016-May-25 00:33N 40°45' E 029°30'2 0.2
2016-May-24 13:31N 40°45' E 029°33'10 9.6
2016-May-24 12:31N 40°44' E 029°21'1414.2
2016-May-24 11:33N 40°43' E 029°03'14913.6
2016-May-24 00:33N 39°55' E 025°57'13715.0
2016-May-23 15:24N 37°54' E 024°35'1314.5
2016-May-23 14:32N 37°46' E 024°22'2713.8
2016-May-23 12:33N 37°37' E 023°50'1414.2
2016-May-23 11:34N 37°47' E 023°38'1110.6
2016-May-23 10:33N 37°58' E 023°36'0 0.1
2016-May-23 09:31N 37°58' E 023°36'0 0.0
2016-May-23 08:28N 37°58' E 023°36'0 0.0
2016-May-23 07:31N 37°58' E 023°36'0 0.0
2016-May-23 06:34N 37°58' E 023°36'0 0.0
2016-May-23 05:34N 37°58' E 023°36'1 0.6
2016-May-23 04:34N 37°57' E 023°36'3 3.0
2016-May-23 03:33N 37°54' E 023°36'3 3.2
2016-May-23 02:34N 37°52' E 023°38'10 9.6
2016-May-23 01:33N 37°43' E 023°44'1312.9
2016-May-23 00:34N 37°30' E 023°45'1514.4
2016-May-22 23:33N 37°16' E 023°44'357 9.4
2016-May-21 09:34N 37°40' E 016°15'1514.9
2016-May-21 08:32N 37°44' E 015°57'1515.4
2016-May-21 07:33N 37°51' E 015°40'1313.4
2016-May-21 06:33N 38°04' E 015°34'1414.3
2016-May-21 05:33N 38°17' E 015°40'1010.1
2016-May-21 04:33N 38°25' E 015°32'1514.7
2016-May-21 03:34N 38°35' E 015°19'1514.9
2016-May-21 02:33N 38°46' E 015°06'1515.1
2016-May-21 01:33N 38°56' E 014°51'  
Track history (hours):
 
Tides and Currents Weather Stations Pressure Air Temp Water Temp Dewpoint Dewpoint Depression Visibility Wind Speed Wind Dir Waves Ship Positions

Planet Ace

Last reported at 2016-May-30 08:17 UTC. Time now 2016-May-30 18:24 UTC.
Position N 43°13' E 004°12'.

Length 188 m; beam 28.2 m.

Type: Cargo ship. MMSI: 352168000.

Date/timePositionNaut miles runAvg speedWind from/ knotsBaromVisibWave heightAir tempDewpointWater temp
2016-May-30 08:17N 43°13' E 004°12'1314.6
2016-May-30 07:24N 43°09' E 004°29'13613.8
2016-May-29 21:33N 42°58' E 007°34'1413.6
2016-May-29 20:33N 42°60' E 007°52'2713.4
2016-May-29 18:33N 43°04' E 008°29'1413.6
2016-May-29 17:31N 43°06' E 008°48'1413.5
2016-May-29 16:29N 43°08' E 009°07'1213.1
2016-May-29 15:34N 43°06' E 009°23'1313.3
2016-May-29 14:34N 42°58' E 009°38'2014.7
2016-May-29 13:12N 42°40' E 009°48'3913.3
2016-May-29 10:16N 42°10' E 010°23'12015.0
2016-May-29 02:17N 41°02' E 012°34'1115.0
2016-May-29 01:32N 40°55' E 012°45'1515.3
2016-May-29 00:33N 40°46' E 013°02'1515.5
2016-May-28 23:33N 40°40' E 013°21'1515.4
2016-May-28 22:33N 40°35' E 013°39'1515.2
2016-May-28 21:34N 40°30' E 013°58'1514.6
2016-May-28 20:33N 40°27' E 014°17'1515.2
2016-May-28 19:33N 40°33' E 014°35'10 2.0
2016-May-28 14:29N 40°40' E 014°45'0 0.0
2016-May-28 13:29N 40°40' E 014°45'0 0.0
2016-May-28 12:32N 40°40' E 014°45'0 0.0
2016-May-28 10:29N 40°40' E 014°45'5 4.5
2016-May-28 09:20N 40°35' E 014°43'1215.8
2016-May-28 08:33N 40°23' E 014°43'1717.4
2016-May-28 07:33N 40°06' E 014°48'5217.3
2016-May-28 04:33N 39°18' E 015°13'1817.5
2016-May-28 03:33N 39°02' E 015°21'1717.4
2016-May-28 02:33N 38°45' E 015°29'1717.3
2016-May-28 01:33N 38°29' E 015°37'1514.6
2016-May-28 00:33N 38°15' E 015°39'1615.6
2016-May-27 23:33N 37°59' E 015°36'1616.2
2016-May-27 22:33N 37°48' E 015°51'1717.1
2016-May-27 21:33N 37°40' E 016°10'1716.5
2016-May-27 20:33N 37°36' E 016°30'1616.5
2016-May-27 19:34N 37°32' E 016°50'1816.6
2016-May-27 18:30N 37°27' E 017°11'4116.9
2016-May-27 16:03N 37°14' E 018°01'917.1
2016-May-27 15:30N 37°11' E 018°12'25415.7
2016-May-26 23:18N 36°22' E 023°23'1317.1
2016-May-26 22:33N 36°33' E 023°30'3917.0
2016-May-26 20:14N 37°05' E 023°59'1217.2
2016-May-26 19:33N 37°15' E 024°07'1717.0
2016-May-26 18:33N 37°29' E 024°18'1616.2
2016-May-26 17:34N 37°43' E 024°29'26812.8
2016-May-25 20:33N 40°25' E 029°04'0 0.0
2016-May-25 06:19N 40°25' E 029°05'2 2.5
2016-May-25 05:29N 40°25' E 029°02'17 7.1
2016-May-25 03:07N 40°39' E 028°50'813.7
2016-May-25 02:33N 40°42' E 028°60'1312.9
2016-May-25 01:33N 40°44' E 029°17'1010.2
2016-May-25 00:33N 40°45' E 029°30'2 0.2
2016-May-24 13:31N 40°45' E 029°33'10 9.6
2016-May-24 12:31N 40°44' E 029°21'1414.2
2016-May-24 11:33N 40°43' E 029°03'14913.6
2016-May-24 00:33N 39°55' E 025°57'13715.0
2016-May-23 15:24N 37°54' E 024°35'1314.5
2016-May-23 14:32N 37°46' E 024°22'2713.8
2016-May-23 12:33N 37°37' E 023°50'1414.2
2016-May-23 11:34N 37°47' E 023°38'1110.6
2016-May-23 10:33N 37°58' E 023°36'0 0.1
2016-May-23 09:31N 37°58' E 023°36'0 0.0
2016-May-23 08:28N 37°58' E 023°36'0 0.0
2016-May-23 07:31N 37°58' E 023°36'0 0.0
2016-May-23 06:34N 37°58' E 023°36'0 0.0
2016-May-23 05:34N 37°58' E 023°36'1 0.6
2016-May-23 04:34N 37°57' E 023°36'3 3.0
2016-May-23 03:33N 37°54' E 023°36'3 3.2
2016-May-23 02:34N 37°52' E 023°38'10 9.6
2016-May-23 01:33N 37°43' E 023°44'1312.9
2016-May-23 00:34N 37°30' E 023°45'1514.4
2016-May-22 23:33N 37°16' E 023°44'357 9.4
2016-May-21 09:34N 37°40' E 016°15'1514.9
2016-May-21 08:32N 37°44' E 015°57'1515.4
2016-May-21 07:33N 37°51' E 015°40'1313.4
2016-May-21 06:33N 38°04' E 015°34'1414.3
2016-May-21 05:33N 38°17' E 015°40'1010.1
2016-May-21 04:33N 38°25' E 015°32'1514.7
2016-May-21 03:34N 38°35' E 015°19'1514.9
2016-May-21 02:33N 38°46' E 015°06'1515.1
2016-May-21 01:33N 38°56' E 014°51'  

Dump ship's entire track history